sensor_id;sensor_type;location;lat;lon;timestamp;pressure;altitude;pressure_sealevel;temperature;humidity
64368;BME280;50692;53.314;-6.300;2023-02-28T00:01:53;103331.53;;;9.03;71.49
64368;BME280;50692;53.314;-6.300;2023-02-28T00:04:38;103340.31;;;9.04;71.63
64368;BME280;50692;53.314;-6.300;2023-02-28T00:07:24;103336.78;;;9.05;72.03
64368;BME280;50692;53.314;-6.300;2023-02-28T00:10:12;103331.53;;;9.05;72.25
64368;BME280;50692;53.314;-6.300;2023-02-28T00:13:01;103335.94;;;9.04;72.51
64368;BME280;50692;53.314;-6.300;2023-02-28T00:15:47;103345.59;;;9.05;72.52
64368;BME280;50692;53.314;-6.300;2023-02-28T00:18:43;103339.47;;;9.03;72.93
64368;BME280;50692;53.314;-6.300;2023-02-28T00:21:29;103342.09;;;9.03;73.29
64368;BME280;50692;53.314;-6.300;2023-02-28T00:24:15;103342.97;;;9.02;73.52
64368;BME280;50692;53.314;-6.300;2023-02-28T00:27:00;103341.16;;;9.09;73.71
64368;BME280;50692;53.314;-6.300;2023-02-28T00:29:47;103344.69;;;9.11;73.70
64368;BME280;50692;53.314;-6.300;2023-02-28T00:32:34;103347.31;;;9.12;73.83
64368;BME280;50692;53.314;-6.300;2023-02-28T00:35:20;103351.72;;;9.13;74.22
64368;BME280;50692;53.314;-6.300;2023-02-28T00:38:06;103352.59;;;9.12;74.26
64368;BME280;50692;53.314;-6.300;2023-02-28T00:40:52;103361.38;;;9.15;74.40
64368;BME280;50692;53.314;-6.300;2023-02-28T00:43:39;103358.75;;;9.18;74.49
64368;BME280;50692;53.314;-6.300;2023-02-28T00:46:25;103330.66;;;9.01;74.56
64368;BME280;50692;53.314;-6.300;2023-02-28T00:49:11;103363.13;;;9.19;74.70
64368;BME280;50692;53.314;-6.300;2023-02-28T00:51:56;103368.41;;;9.19;74.96
64368;BME280;50692;53.314;-6.300;2023-02-28T00:54:42;103348.16;;;9.16;75.12
64368;BME280;50692;53.314;-6.300;2023-02-28T00:57:28;103357.84;;;9.22;75.12
64368;BME280;50692;53.314;-6.300;2023-02-28T01:00:14;103352.56;;;9.22;75.40
64368;BME280;50692;53.314;-6.300;2023-02-28T01:03:00;103356.94;;;9.23;75.47
64368;BME280;50692;53.314;-6.300;2023-02-28T01:05:47;103356.97;;;9.18;75.76
64368;BME280;50692;53.314;-6.300;2023-02-28T01:08:33;103356.94;;;9.20;76.11
64368;BME280;50692;53.314;-6.300;2023-02-28T01:11:18;103363.13;;;9.22;75.99
64368;BME280;50692;53.314;-6.300;2023-02-28T01:14:04;103359.59;;;9.21;76.23
64368;BME280;50692;53.314;-6.300;2023-02-28T01:16:50;103364.00;;;9.21;76.19
64368;BME280;50692;53.314;-6.300;2023-02-28T01:19:37;103371.03;;;9.25;76.38
64368;BME280;50692;53.314;-6.300;2023-02-28T01:22:23;103364.84;;;9.23;76.38
64368;BME280;50692;53.314;-6.300;2023-02-28T01:25:08;103336.75;;;9.12;76.25
64368;BME280;50692;53.314;-6.300;2023-02-28T01:27:54;103362.22;;;9.26;76.32
64368;BME280;50692;53.314;-6.300;2023-02-28T01:30:40;103362.22;;;9.26;76.37
64368;BME280;50692;53.314;-6.300;2023-02-28T01:33:26;103356.03;;;9.27;76.18
64368;BME280;50692;53.314;-6.300;2023-02-28T01:36:17;103365.72;;;9.28;76.17
64368;BME280;50692;53.314;-6.300;2023-02-28T01:39:04;103363.94;;;9.27;76.04
64368;BME280;50692;53.314;-6.300;2023-02-28T01:41:49;103360.44;;;9.28;75.78
64368;BME280;50692;53.314;-6.300;2023-02-28T01:47:46;103356.09;;;9.18;75.41
64368;BME280;50692;53.314;-6.300;2023-02-28T01:50:36;103364.88;;;9.24;75.63
64368;BME280;50692;53.314;-6.300;2023-02-28T01:53:33;103359.59;;;9.21;75.55
64368;BME280;50692;53.314;-6.300;2023-02-28T01:56:23;103358.72;;;9.22;75.24
64368;BME280;50692;53.314;-6.300;2023-02-28T01:59:12;103358.72;;;9.22;75.13
64368;BME280;50692;53.314;-6.300;2023-02-28T02:02:01;103363.06;;;9.26;74.73
64368;BME280;50692;53.314;-6.300;2023-02-28T02:05:07;103363.97;;;9.24;75.00
64368;BME280;50692;53.314;-6.300;2023-02-28T02:08:03;103362.22;;;9.20;74.79
64368;BME280;50692;53.314;-6.300;2023-02-28T02:10:58;103371.88;;;9.24;74.67
64368;BME280;50692;53.314;-6.300;2023-02-28T02:35:58;103363.09;;;9.20;74.46
64368;BME280;50692;53.314;-6.300;2023-02-28T02:38:50;103365.75;;;9.19;74.77
64368;BME280;50692;53.314;-6.300;2023-02-28T02:41:46;103360.47;;;9.19;74.84
64368;BME280;50692;53.314;-6.300;2023-02-28T02:44:42;103357.00;;;9.13;75.01
64368;BME280;50692;53.314;-6.300;2023-02-28T02:47:31;103364.00;;;9.16;75.36
64368;BME280;50692;53.314;-6.300;2023-02-28T02:50:41;103357.88;;;9.17;75.64
64368;BME280;50692;53.314;-6.300;2023-02-28T02:53:32;103361.38;;;9.16;75.58
64368;BME280;50692;53.314;-6.300;2023-02-28T02:56:24;103354.31;;;9.17;75.47
64368;BME280;50692;53.314;-6.300;2023-02-28T02:59:14;103356.09;;;9.18;75.67
64368;BME280;50692;53.314;-6.300;2023-02-28T03:02:08;103352.59;;;9.12;75.80
64368;BME280;50692;53.314;-6.300;2023-02-28T03:04:59;103352.59;;;9.12;75.79
64368;BME280;50692;53.314;-6.300;2023-02-28T03:07:46;103347.31;;;9.12;75.79
64368;BME280;50692;53.314;-6.300;2023-02-28T03:10:39;103355.25;;;9.14;75.73
64368;BME280;50692;53.314;-6.300;2023-02-28T03:13:47;103347.28;;;9.16;75.60
64368;BME280;50692;53.314;-6.300;2023-02-28T03:37:08;103355.28;;;9.06;76.15
64368;BME280;50692;53.314;-6.300;2023-02-28T03:40:01;103368.44;;;9.09;76.45
64368;BME280;50692;53.314;-6.300;2023-02-28T03:42:56;103373.69;;;9.12;76.09
64368;BME280;50692;53.314;-6.300;2023-02-28T03:45:45;103369.31;;;9.11;76.09
64368;BME280;50692;53.314;-6.300;2023-02-28T03:48:46;103373.72;;;9.11;76.39
64368;BME280;50692;53.314;-6.300;2023-02-28T03:51:36;103351.78;;;8.98;76.41
64368;BME280;50692;53.314;-6.300;2023-02-28T03:54:28;103371.09;;;9.08;76.30
64368;BME280;50692;53.314;-6.300;2023-02-28T03:57:26;103375.47;;;9.09;76.47
64368;BME280;50692;53.314;-6.300;2023-02-28T04:00:14;103378.13;;;9.10;76.33
64368;BME280;50692;53.314;-6.300;2023-02-28T04:03:03;103379.88;;;9.15;76.59
64368;BME280;50692;53.314;-6.300;2023-02-28T04:05:52;103379.88;;;9.11;76.18
64368;BME280;50692;53.314;-6.300;2023-02-28T04:08:38;103365.84;;;9.06;76.35
64368;BME280;50692;53.314;-6.300;2023-02-28T04:11:45;103374.56;;;9.13;76.82
64368;BME280;50692;53.314;-6.300;2023-02-28T04:14:32;103365.84;;;9.06;76.50
64368;BME280;50692;53.314;-6.300;2023-02-28T04:17:18;103374.63;;;9.07;76.83
64368;BME280;50692;53.314;-6.300;2023-02-28T04:20:04;103377.25;;;9.05;76.73
64368;BME280;50692;53.314;-6.300;2023-02-28T04:22:55;103372.84;;;9.06;77.08
64368;BME280;50692;53.314;-6.300;2023-02-28T04:25:40;103374.59;;;9.05;77.29
64368;BME280;50692;53.314;-6.300;2023-02-28T04:28:26;103375.50;;;9.04;77.17
64368;BME280;50692;53.314;-6.300;2023-02-28T04:31:12;103382.53;;;9.05;77.17
64368;BME280;50692;53.314;-6.300;2023-02-28T04:33:58;103390.44;;;9.05;77.19
64368;BME280;50692;53.314;-6.300;2023-02-28T04:36:44;103392.22;;;9.05;77.46
64368;BME280;50692;53.314;-6.300;2023-02-28T04:39:35;103377.31;;;8.96;77.68
64368;BME280;50692;53.314;-6.300;2023-02-28T04:42:21;103393.97;;;9.04;77.67
64368;BME280;50692;53.314;-6.300;2023-02-28T04:45:07;103399.25;;;9.04;77.63
64368;BME280;50692;53.314;-6.300;2023-02-28T04:47:55;103402.75;;;9.08;77.61
64368;BME280;50692;53.314;-6.300;2023-02-28T04:50:41;103400.13;;;9.05;77.67
64368;BME280;50692;53.314;-6.300;2023-02-28T04:53:28;103401.88;;;9.07;77.99
64368;BME280;50692;53.314;-6.300;2023-02-28T04:56:16;103406.28;;;9.07;78.24
64368;BME280;50692;53.314;-6.300;2023-02-28T04:59:02;103410.69;;;9.05;78.52
64368;BME280;50692;53.314;-6.300;2023-02-28T05:01:49;103411.56;;;9.02;78.87
64368;BME280;50692;53.314;-6.300;2023-02-28T05:04:35;103403.66;;;9.02;79.23
64368;BME280;50692;53.314;-6.300;2023-02-28T05:07:21;103408.94;;;8.98;79.04
64368;BME280;50692;53.314;-6.300;2023-02-28T05:10:07;103397.56;;;8.86;77.63
64368;BME280;50692;53.314;-6.300;2023-02-28T05:12:53;103403.72;;;8.82;77.11
64368;BME280;50692;53.314;-6.300;2023-02-28T05:15:39;103405.47;;;8.80;76.51
64368;BME280;50692;53.314;-6.300;2023-02-28T05:18:24;103420.47;;;8.71;76.00
64368;BME280;50692;53.314;-6.300;2023-02-28T05:24:12;103427.50;;;8.47;77.68
64368;BME280;50692;53.314;-6.300;2023-02-28T05:26:57;103426.63;;;8.40;77.99
64368;BME280;50692;53.314;-6.300;2023-02-28T05:29:43;103423.97;;;8.34;78.33
64368;BME280;50692;53.314;-6.300;2023-02-28T05:32:30;103431.00;;;8.31;78.85
64368;BME280;50692;53.314;-6.300;2023-02-28T05:35:16;103439.78;;;8.34;78.72
64368;BME280;50692;53.314;-6.300;2023-02-28T05:38:02;103441.56;;;8.35;79.09
64368;BME280;50692;53.314;-6.300;2023-02-28T05:40:48;103434.50;;;8.34;80.03
64368;BME280;50692;53.314;-6.300;2023-02-28T05:43:35;103445.09;;;8.37;79.93
64368;BME280;50692;53.314;-6.300;2023-02-28T05:46:21;103444.22;;;8.38;80.27
64368;BME280;50692;53.314;-6.300;2023-02-28T05:49:06;103444.19;;;8.37;80.26
64368;BME280;50692;53.314;-6.300;2023-02-28T05:51:52;103444.19;;;8.37;80.51
64368;BME280;50692;53.314;-6.300;2023-02-28T05:54:38;103435.41;;;8.35;80.63
64368;BME280;50692;53.314;-6.300;2023-02-28T05:57:24;103438.03;;;8.35;80.66
64368;BME280;50692;53.314;-6.300;2023-02-28T06:00:11;103436.28;;;8.32;80.65
64368;BME280;50692;53.314;-6.300;2023-02-28T06:02:57;103441.56;;;8.32;80.96
64368;BME280;50692;53.314;-6.300;2023-02-28T06:05:47;103437.16;;;8.31;81.18
64368;BME280;50692;53.314;-6.300;2023-02-28T06:08:32;103445.06;;;8.30;81.15
64368;BME280;50692;53.314;-6.300;2023-02-28T06:11:18;103440.69;;;8.29;81.63
64368;BME280;50692;53.314;-6.300;2023-02-28T06:14:05;103449.44;;;8.29;81.59
64368;BME280;50692;53.314;-6.300;2023-02-28T06:16:51;103442.44;;;8.28;82.42
64368;BME280;50692;53.314;-6.300;2023-02-28T06:19:38;103431.88;;;8.22;82.77
64368;BME280;50692;53.314;-6.300;2023-02-28T06:22:26;103446.81;;;8.26;82.54
64368;BME280;50692;53.314;-6.300;2023-02-28T06:25:12;103442.44;;;8.28;82.74
64368;BME280;50692;53.314;-6.300;2023-02-28T06:27:58;103447.69;;;8.33;82.63
64368;BME280;50692;53.314;-6.300;2023-02-28T06:30:44;103450.31;;;8.30;82.45
64368;BME280;50692;53.314;-6.300;2023-02-28T06:33:30;103450.34;;;8.28;82.87
64368;BME280;50692;53.314;-6.300;2023-02-28T06:36:16;103436.28;;;8.18;82.85
64368;BME280;50692;53.314;-6.300;2023-02-28T06:39:02;103445.94;;;8.23;83.50
64368;BME280;50692;53.314;-6.300;2023-02-28T06:41:48;103444.19;;;8.17;83.48
64368;BME280;50692;53.314;-6.300;2023-02-28T06:44:34;103458.25;;;8.21;83.80
64368;BME280;50692;53.314;-6.300;2023-02-28T06:47:23;103454.69;;;8.20;84.08
64368;BME280;50692;53.314;-6.300;2023-02-28T06:50:11;103464.38;;;8.21;84.26
64368;BME280;50692;53.314;-6.300;2023-02-28T06:52:57;103468.78;;;8.22;84.54
64368;BME280;50692;53.314;-6.300;2023-02-28T06:55:43;103474.06;;;8.17;84.71
64368;BME280;50692;53.314;-6.300;2023-02-28T06:58:29;103475.81;;;8.17;85.00
64368;BME280;50692;53.314;-6.300;2023-02-28T07:01:14;103485.47;;;8.15;85.50
64368;BME280;50692;53.314;-6.300;2023-02-28T07:04:00;103480.19;;;8.12;85.33
64368;BME280;50692;53.314;-6.300;2023-02-28T07:06:46;103478.44;;;8.14;85.73
64368;BME280;50692;53.314;-6.300;2023-02-28T07:09:32;103486.31;;;8.08;85.92
64368;BME280;50692;53.314;-6.300;2023-02-28T07:12:18;103487.19;;;8.08;86.00
64368;BME280;50692;53.314;-6.300;2023-02-28T07:15:05;103495.13;;;8.11;86.20
64368;BME280;50692;53.314;-6.300;2023-02-28T07:17:51;103489.84;;;8.14;85.88
64368;BME280;50692;53.314;-6.300;2023-02-28T07:20:36;103500.41;;;8.17;86.10
64368;BME280;50692;53.314;-6.300;2023-02-28T07:23:23;103500.38;;;8.04;86.49
64368;BME280;50692;53.314;-6.300;2023-02-28T07:26:15;103500.38;;;8.14;86.21
64368;BME280;50692;53.314;-6.300;2023-02-28T07:29:02;103503.91;;;8.13;86.22
64368;BME280;50692;53.314;-6.300;2023-02-28T07:31:48;103500.38;;;8.08;86.29
64368;BME280;50692;53.314;-6.300;2023-02-28T07:34:36;103499.47;;;8.09;86.28
64368;BME280;50692;53.314;-6.300;2023-02-28T07:37:22;103510.03;;;8.15;86.12
64368;BME280;50692;53.314;-6.300;2023-02-28T07:40:10;103503.00;;;8.16;86.05
64368;BME280;50692;53.314;-6.300;2023-02-28T07:42:59;103478.41;;;7.97;85.88
64368;BME280;50692;53.314;-6.300;2023-02-28T07:45:47;103508.28;;;8.16;85.93
64368;BME280;50692;53.314;-6.300;2023-02-28T07:48:33;103512.69;;;8.15;86.61
64368;BME280;50692;53.314;-6.300;2023-02-28T07:51:18;103518.81;;;8.11;86.57
64368;BME280;50692;53.314;-6.300;2023-02-28T07:54:04;103521.47;;;8.07;86.87
64368;BME280;50692;53.314;-6.300;2023-02-28T07:56:50;103523.16;;;7.99;86.74
64368;BME280;50692;53.314;-6.300;2023-02-28T07:59:36;103524.94;;;7.92;86.80
64368;BME280;50692;53.314;-6.300;2023-02-28T08:02:22;103535.47;;;7.89;86.64
64368;BME280;50692;53.314;-6.300;2023-02-28T08:05:08;103534.56;;;7.90;86.26
64368;BME280;50692;53.314;-6.300;2023-02-28T08:07:54;103510.84;;;7.84;85.79
64368;BME280;50692;53.314;-6.300;2023-02-28T08:10:40;103531.94;;;7.94;85.67
64368;BME280;50692;53.314;-6.300;2023-02-28T08:13:26;103524.91;;;7.86;85.70
64368;BME280;50692;53.314;-6.300;2023-02-28T08:16:13;103542.50;;;7.96;85.11
64368;BME280;50692;53.314;-6.300;2023-02-28T08:19:07;103531.97;;;7.98;84.88
64368;BME280;50692;53.314;-6.300;2023-02-28T08:21:54;103548.63;;;7.98;84.10
64368;BME280;50692;53.314;-6.300;2023-02-28T08:24:42;103541.63;;;8.00;83.73
64368;BME280;50692;53.314;-6.300;2023-02-28T08:27:28;103540.78;;;8.03;83.77
64368;BME280;50692;53.314;-6.300;2023-02-28T08:30:15;103541.63;;;8.00;83.78
64368;BME280;50692;53.314;-6.300;2023-02-28T08:33:00;103546.94;;;8.14;83.27
64368;BME280;50692;53.314;-6.300;2023-02-28T08:35:47;103547.81;;;8.24;82.68
64368;BME280;50692;53.314;-6.300;2023-02-28T08:38:33;103541.69;;;8.26;82.01
64368;BME280;50692;53.314;-6.300;2023-02-28T08:41:19;103544.31;;;8.23;81.03
64368;BME280;50692;53.314;-6.300;2023-02-28T08:44:04;103546.97;;;8.28;80.61
64368;BME280;50692;53.314;-6.300;2023-02-28T08:46:50;103552.25;;;8.32;79.67
64368;BME280;50692;53.314;-6.300;2023-02-28T08:49:36;103546.09;;;8.26;78.31
64368;BME280;50692;53.314;-6.300;2023-02-28T08:52:23;103546.97;;;8.32;78.33
64368;BME280;50692;53.314;-6.300;2023-02-28T08:55:09;103548.72;;;8.27;77.61
64368;BME280;50692;53.314;-6.300;2023-02-28T08:57:55;103554.00;;;8.33;77.41
64368;BME280;50692;53.314;-6.300;2023-02-28T09:00:41;103551.41;;;8.41;77.47
64368;BME280;50692;53.314;-6.300;2023-02-28T09:03:26;103553.19;;;8.47;77.40
64368;BME280;50692;53.314;-6.300;2023-02-28T09:06:13;103555.78;;;8.45;77.07
64368;BME280;50692;53.314;-6.300;2023-02-28T09:08:59;103550.53;;;8.54;76.68
64368;BME280;50692;53.314;-6.300;2023-02-28T09:11:46;103547.91;;;8.47;76.46
64368;BME280;50692;53.314;-6.300;2023-02-28T09:14:32;103553.19;;;8.51;75.91
64368;BME280;50692;53.314;-6.300;2023-02-28T09:17:18;103561.97;;;8.59;76.05
64368;BME280;50692;53.314;-6.300;2023-02-28T09:20:05;103562.84;;;8.63;75.82
64368;BME280;50692;53.314;-6.300;2023-02-28T09:22:51;103557.59;;;8.61;75.93
64368;BME280;50692;53.314;-6.300;2023-02-28T09:25:45;103565.50;;;8.75;75.72
64368;BME280;50692;53.314;-6.300;2023-02-28T09:28:31;103556.72;;;8.72;74.68
64368;BME280;50692;53.314;-6.300;2023-02-28T09:31:21;103571.63;;;8.56;72.65
64368;BME280;50692;53.314;-6.300;2023-02-28T09:34:07;103576.03;;;8.58;72.60
64368;BME280;50692;53.314;-6.300;2023-02-28T09:36:53;103569.91;;;8.61;72.38
64368;BME280;50692;53.314;-6.300;2023-02-28T09:39:40;103540.81;;;8.36;71.83
64368;BME280;50692;53.314;-6.300;2023-02-28T09:42:32;103569.91;;;8.67;72.64
64368;BME280;50692;53.314;-6.300;2023-02-28T09:45:39;103569.00;;;8.77;71.96
64368;BME280;50692;53.314;-6.300;2023-02-28T09:48:35;103562.84;;;8.94;72.18
64368;BME280;50692;53.314;-6.300;2023-02-28T09:51:55;103569.00;;;9.16;71.95
64368;BME280;50692;53.314;-6.300;2023-02-28T09:54:44;103565.47;;;9.24;70.81
64368;BME280;50692;53.314;-6.300;2023-02-28T09:57:37;103562.78;;;9.36;70.20
64368;BME280;50692;53.314;-6.300;2023-02-28T10:00:37;103563.66;;;9.40;69.05
64368;BME280;50692;53.314;-6.300;2023-02-28T10:03:58;103567.16;;;9.44;69.38
64368;BME280;50692;53.314;-6.300;2023-02-28T10:06:50;103567.16;;;9.54;68.71
64368;BME280;50692;53.314;-6.300;2023-02-28T10:09:37;103562.72;;;9.58;68.74
64368;BME280;50692;53.314;-6.300;2023-02-28T10:12:24;103560.06;;;9.64;67.86
64368;BME280;50692;53.314;-6.300;2023-02-28T10:15:15;103558.34;;;9.52;67.42
64368;BME280;50692;53.314;-6.300;2023-02-28T10:18:04;103564.50;;;9.51;66.78
64368;BME280;50692;53.314;-6.300;2023-02-28T10:20:53;103561.03;;;9.46;66.88
64368;BME280;50692;53.314;-6.300;2023-02-28T10:23:41;103556.63;;;9.41;67.15
64368;BME280;50692;53.314;-6.300;2023-02-28T10:26:28;103565.41;;;9.38;67.04
64368;BME280;50692;53.314;-6.300;2023-02-28T10:29:16;103571.59;;;9.39;66.90
64368;BME280;50692;53.314;-6.300;2023-02-28T10:32:03;103561.91;;;9.33;66.95
64368;BME280;50692;53.314;-6.300;2023-02-28T10:34:57;103577.75;;;9.37;66.83
64368;BME280;50692;53.314;-6.300;2023-02-28T10:37:46;103554.91;;;9.32;66.48
64368;BME280;50692;53.314;-6.300;2023-02-28T10:40:34;103577.75;;;9.41;66.45
64368;BME280;50692;53.314;-6.300;2023-02-28T10:43:23;103568.94;;;9.42;66.37
64368;BME280;50692;53.314;-6.300;2023-02-28T10:49:49;103535.53;;;9.36;65.12
64368;BME280;50692;53.314;-6.300;2023-02-28T10:52:38;103568.03;;;9.53;65.40
64368;BME280;50692;53.314;-6.300;2023-02-28T10:55:45;103576.81;;;9.60;64.45
64368;BME280;50692;53.314;-6.300;2023-02-28T10:58:56;103572.38;;;9.70;64.30
64368;BME280;50692;53.314;-6.300;2023-02-28T11:01:44;103577.50;;;10.06;64.42
64368;BME280;50692;53.314;-6.300;2023-02-28T11:04:35;103567.72;;;10.31;62.62
64368;BME280;50692;53.314;-6.300;2023-02-28T11:07:25;103567.59;;;10.44;61.78
64368;BME280;50692;53.314;-6.300;2023-02-28T11:10:18;103560.50;;;10.49;61.36
64368;BME280;50692;53.314;-6.300;2023-02-28T11:13:05;103559.72;;;10.39;61.06
64368;BME280;50692;53.314;-6.300;2023-02-28T11:15:58;103557.94;;;10.43;60.71
64368;BME280;50692;53.314;-6.300;2023-02-28T11:18:53;103562.34;;;10.39;60.33
64368;BME280;50692;53.314;-6.300;2023-02-28T11:21:48;103533.25;;;10.38;59.84
64368;BME280;50692;53.314;-6.300;2023-02-28T11:24:41;103560.56;;;10.43;59.11
64368;BME280;50692;53.314;-6.300;2023-02-28T11:27:47;103545.69;;;10.22;58.94
64368;BME280;50692;53.314;-6.300;2023-02-28T11:30:41;103548.41;;;10.11;60.49
64368;BME280;50692;53.314;-6.300;2023-02-28T11:33:32;103558.84;;;10.37;60.60
64368;BME280;50692;53.314;-6.300;2023-02-28T11:36:28;103560.50;;;10.49;60.39
64368;BME280;50692;53.314;-6.300;2023-02-28T11:39:16;103567.56;;;10.48;60.42
64368;BME280;50692;53.314;-6.300;2023-02-28T11:54:42;103542.25;;;10.11;61.36
64368;BME280;50692;53.314;-6.300;2023-02-28T12:00:57;103576.75;;;9.77;65.32
64368;BME280;50692;53.314;-6.300;2023-02-28T12:10:01;103559.28;;;9.36;67.47
64368;BME280;50692;53.314;-6.300;2023-02-28T12:22:31;103555.34;;;10.30;64.50
64368;BME280;50692;53.314;-6.300;2023-02-28T12:28:12;103542.00;;;10.50;61.89
64368;BME280;50692;53.314;-6.300;2023-02-28T12:31:10;103542.88;;;10.49;60.03
64368;BME280;50692;53.314;-6.300;2023-02-28T12:34:10;103521.78;;;10.42;59.50
64368;BME280;50692;53.314;-6.300;2023-02-28T12:37:02;103543.66;;;10.65;59.75
64368;BME280;50692;53.314;-6.300;2023-02-28T12:39:56;103541.09;;;10.51;59.06
64368;BME280;50692;53.314;-6.300;2023-02-28T12:42:49;103523.56;;;10.38;59.05
64368;BME280;50692;53.314;-6.300;2023-02-28T12:48:37;103527.22;;;10.17;59.60
64368;BME280;50692;53.314;-6.300;2023-02-28T12:51:25;103529.94;;;10.03;60.50
64368;BME280;50692;53.314;-6.300;2023-02-28T12:57:39;103543.22;;;9.91;60.17
64368;BME280;50692;53.314;-6.300;2023-02-28T13:00:33;103538.84;;;9.85;60.23
64368;BME280;50692;53.314;-6.300;2023-02-28T13:10:00;103522.81;;;10.18;60.04
64368;BME280;50692;53.314;-6.300;2023-02-28T13:12:57;103517.47;;;10.22;59.46
64368;BME280;50692;53.314;-6.300;2023-02-28T13:16:01;103518.41;;;10.18;59.23
64368;BME280;50692;53.314;-6.300;2023-02-28T13:18:48;103517.56;;;10.08;59.63
64368;BME280;50692;53.314;-6.300;2023-02-28T13:21:42;103512.41;;;9.90;59.52
64368;BME280;50692;53.314;-6.300;2023-02-28T13:27:31;103517.75;;;9.70;60.23
64368;BME280;50692;53.314;-6.300;2023-02-28T13:36:44;103500.31;;;9.31;60.67
64368;BME280;50692;53.314;-6.300;2023-02-28T13:48:05;103489.78;;;9.28;60.85
64368;BME280;50692;53.314;-6.300;2023-02-28T13:51:40;103486.25;;;9.35;60.89
64368;BME280;50692;53.314;-6.300;2023-02-28T14:01:16;103490.66;;;9.24;62.04
64368;BME280;50692;53.314;-6.300;2023-02-28T14:07:17;103487.19;;;9.02;62.25
64368;BME280;50692;53.314;-6.300;2023-02-28T14:10:06;103488.97;;;9.10;62.02
64368;BME280;50692;53.314;-6.300;2023-02-28T14:15:49;103486.31;;;9.10;62.45
64368;BME280;50692;53.314;-6.300;2023-02-28T14:18:50;103476.63;;;9.12;62.51
64368;BME280;50692;53.314;-6.300;2023-02-28T14:21:39;103481.00;;;9.21;62.50
64368;BME280;50692;53.314;-6.300;2023-02-28T14:27:40;103474.84;;;9.25;62.14
64368;BME280;50692;53.314;-6.300;2023-02-28T14:30:50;103481.00;;;9.23;62.14
64368;BME280;50692;53.314;-6.300;2023-02-28T14:36:35;103474.84;;;9.22;62.35
64368;BME280;50692;53.314;-6.300;2023-02-28T14:39:24;103473.06;;;9.27;62.16
64368;BME280;50692;53.314;-6.300;2023-02-28T14:42:31;103475.69;;;9.29;62.25
64368;BME280;50692;53.314;-6.300;2023-02-28T14:45:19;103476.59;;;9.28;62.46
64368;BME280;50692;53.314;-6.300;2023-02-28T14:48:09;103481.00;;;9.23;62.42
64368;BME280;50692;53.314;-6.300;2023-02-28T14:50:59;103481.88;;;9.23;62.11
64368;BME280;50692;53.314;-6.300;2023-02-28T14:53:49;103480.13;;;9.19;62.19
64368;BME280;50692;53.314;-6.300;2023-02-28T14:56:39;103479.28;;;9.17;62.09
64368;BME280;50692;53.314;-6.300;2023-02-28T14:59:31;103476.63;;;9.19;62.05
64368;BME280;50692;53.314;-6.300;2023-02-28T15:02:22;103467.81;;;9.20;62.17
64368;BME280;50692;53.314;-6.300;2023-02-28T15:08:04;103463.41;;;9.25;61.94
64368;BME280;50692;53.314;-6.300;2023-02-28T15:10:56;103455.50;;;9.12;61.44
64368;BME280;50692;53.314;-6.300;2023-02-28T15:13:51;103464.28;;;9.13;61.42
64368;BME280;50692;53.314;-6.300;2023-02-28T15:16:40;103465.19;;;9.15;61.56
64368;BME280;50692;53.314;-6.300;2023-02-28T15:19:32;103467.84;;;9.13;62.11
64368;BME280;50692;53.314;-6.300;2023-02-28T15:22:29;103462.56;;;9.13;62.26
64368;BME280;50692;53.314;-6.300;2023-02-28T15:25:19;103460.78;;;9.09;62.45
64368;BME280;50692;53.314;-6.300;2023-02-28T15:28:13;103425.66;;;8.94;62.28
64368;BME280;50692;53.314;-6.300;2023-02-28T15:31:01;103452.91;;;9.06;62.82
64368;BME280;50692;53.314;-6.300;2023-02-28T15:34:02;103452.03;;;8.98;63.07
64368;BME280;50692;53.314;-6.300;2023-02-28T15:36:48;103458.19;;;8.94;63.23
64368;BME280;50692;53.314;-6.300;2023-02-28T15:39:41;103455.59;;;8.83;63.04
64368;BME280;50692;53.314;-6.300;2023-02-28T15:42:29;103460.00;;;8.81;62.98
64368;BME280;50692;53.314;-6.300;2023-02-28T15:45:37;103456.50;;;8.75;63.08
64368;BME280;50692;53.314;-6.300;2023-02-28T15:48:57;103459.13;;;8.79;62.99
64368;BME280;50692;53.314;-6.300;2023-02-28T15:51:43;103444.16;;;8.74;62.81
64368;BME280;50692;53.314;-6.300;2023-02-28T15:54:33;103455.59;;;8.80;63.12
64368;BME280;50692;53.314;-6.300;2023-02-28T15:57:25;103455.59;;;8.79;62.75
64368;BME280;50692;53.314;-6.300;2023-02-28T16:00:15;103451.22;;;8.72;61.92
64368;BME280;50692;53.314;-6.300;2023-02-28T16:03:01;103452.97;;;8.70;61.91
64368;BME280;50692;53.314;-6.300;2023-02-28T16:06:09;103457.38;;;8.61;61.74
64368;BME280;50692;53.314;-6.300;2023-02-28T16:09:03;103459.13;;;8.59;61.68
64368;BME280;50692;53.314;-6.300;2023-02-28T16:11:52;103456.50;;;8.62;61.66
64368;BME280;50692;53.314;-6.300;2023-02-28T16:14:39;103456.50;;;8.69;61.46
64368;BME280;50692;53.314;-6.300;2023-02-28T16:17:28;103462.63;;;8.63;61.51
64368;BME280;50692;53.314;-6.300;2023-02-28T16:20:20;103457.38;;;8.64;61.47
64368;BME280;50692;53.314;-6.300;2023-02-28T16:23:07;103457.38;;;8.58;61.77
64368;BME280;50692;53.314;-6.300;2023-02-28T16:25:53;103460.03;;;8.57;61.70
64368;BME280;50692;53.314;-6.300;2023-02-28T16:28:39;103469.69;;;8.59;61.66
64368;BME280;50692;53.314;-6.300;2023-02-28T16:31:25;103463.53;;;8.57;61.16
64368;BME280;50692;53.314;-6.300;2023-02-28T16:34:11;103467.03;;;8.59;61.04
64368;BME280;50692;53.314;-6.300;2023-02-28T16:36:57;103471.44;;;8.57;61.19
64368;BME280;50692;53.314;-6.300;2023-02-28T16:39:44;103457.41;;;8.49;60.83
64368;BME280;50692;53.314;-6.300;2023-02-28T16:42:30;103468.81;;;8.57;60.90
64368;BME280;50692;53.314;-6.300;2023-02-28T16:45:24;103464.44;;;8.53;60.88
64368;BME280;50692;53.314;-6.300;2023-02-28T16:48:13;103466.19;;;8.50;61.07
64368;BME280;50692;53.314;-6.300;2023-02-28T16:51:00;103462.69;;;8.49;61.34
64368;BME280;50692;53.314;-6.300;2023-02-28T16:53:46;103467.06;;;8.55;61.15
64368;BME280;50692;53.314;-6.300;2023-02-28T16:56:33;103463.53;;;8.47;61.19
64368;BME280;50692;53.314;-6.300;2023-02-28T16:59:23;103462.66;;;8.54;61.11
64368;BME280;50692;53.314;-6.300;2023-02-28T17:02:14;103466.19;;;8.53;60.99
64368;BME280;50692;53.314;-6.300;2023-02-28T17:05:02;103467.03;;;8.49;61.25
64368;BME280;50692;53.314;-6.300;2023-02-28T17:07:48;103467.94;;;8.51;61.53